الصفحة الرئيسية
METAR-TAF:

METAR-TAF

مطار :

Ambon, إندونيسيا

دائرة عرض: 03-42S, خط طول: 128-05E, ارتفاع: 12 متر

مراقبة الطقس الحالي

تاريخ ووقت الإصدار 56 دقيقة قبل الساعة 18:00UTC
ريح 5 عقدة من الشمال/الشمال الغربي
درجة الحرارة 23°درجة مئوية
الرطوبة 100%
ضغط 1010 hPa
الرؤية 10 كم أو أكثر
غيوم متفرقة على ارتفاع 1700 قدم

METAR: WAPP 021800Z 34005KT 9999 SCT017 23/23 Q1010 NOSIG

زمن: 03:56 (18:56 UTC)

توقعات

تاريخ ووقت الإصدار 1ساعة و 56 دقيقة قبل الساعة 17:00UTC
التوقعات صالحة من02 الساعة 18 UTC إلى 03 الساعة 18 UTC
ريح 8 عقدة من الجنوب/الجنوب الشرقي
الرؤية 10 كم أو أكثر
غيوم متفرقة على ارتفاع 1800 قدم
مؤقت
من 02 الساعة 20 UTC إلى 02 الساعة 22 UTC
الرؤية: 5000 متر
غيوم مفككة على ارتفاع 1500 قدم
مطر

TAF: WAPP 021700Z 0218/0318 15008KT 9999 SCT018 TEMPO 0220/0222 5000 RA BKN015

أرصاد الطقس والتوقعات من أكثر من 4000 مطار (تقارير الطقس للمطار METAR والتنبؤ بالطقس بالمطارTAF).

المحطات المتاحة هي النقط الصفراء والحمراء على الخريطة.

حرك المؤشر فوق النقطة لمعرفة اسم المحطة.

ثم انقر لمعرفة أرصاد وتوقعات الطقس.

لتغيير الخارطة: اضغط على الأزرار الخضراء مع رمز الصليب الأسود للتكبير. على الزر الأخضر مع شرطة للتصغير، أو على الأسهم الخضراء للخرائط المجاورة.


METAR-TAF: